sensor_id;sensor_type;location;lat;lon;timestamp;P1;durP1;ratioP1;P2;durP2;ratioP2
4595;SDS011;2310;49.978;8.742;2023-06-22T00:03:08;14.00;;;12.60;;
4595;SDS011;2310;49.978;8.742;2023-06-22T00:07:09;14.90;;;13.47;;
4595;SDS011;2310;49.978;8.742;2023-06-22T00:11:11;14.60;;;13.23;;
4595;SDS011;2310;49.978;8.742;2023-06-22T00:15:13;15.00;;;13.60;;
4595;SDS011;2310;49.978;8.742;2023-06-22T00:19:15;14.97;;;13.67;;
4595;SDS011;2310;49.978;8.742;2023-06-22T00:23:16;15.13;;;13.63;;
4595;SDS011;2310;49.978;8.742;2023-06-22T00:27:18;14.53;;;13.13;;
4595;SDS011;2310;49.978;8.742;2023-06-22T00:31:20;13.53;;;12.33;;
4595;SDS011;2310;49.978;8.742;2023-06-22T00:35:21;15.10;;;13.27;;
4595;SDS011;2310;49.978;8.742;2023-06-22T00:39:23;15.00;;;13.40;;
4595;SDS011;2310;49.978;8.742;2023-06-22T00:43:24;14.00;;;12.73;;
4595;SDS011;2310;49.978;8.742;2023-06-22T00:47:25;12.60;;;11.40;;
4595;SDS011;2310;49.978;8.742;2023-06-22T00:51:28;14.30;;;13.00;;
4595;SDS011;2310;49.978;8.742;2023-06-22T00:55:29;13.30;;;12.03;;
4595;SDS011;2310;49.978;8.742;2023-06-22T00:59:31;13.80;;;12.50;;
4595;SDS011;2310;49.978;8.742;2023-06-22T01:03:33;12.93;;;11.83;;
4595;SDS011;2310;49.978;8.742;2023-06-22T01:07:35;14.53;;;13.30;;
4595;SDS011;2310;49.978;8.742;2023-06-22T01:11:40;14.07;;;12.67;;
4595;SDS011;2310;49.978;8.742;2023-06-22T01:15:49;15.53;;;13.77;;
4595;SDS011;2310;49.978;8.742;2023-06-22T01:19:53;15.97;;;14.47;;
4595;SDS011;2310;49.978;8.742;2023-06-22T01:24:02;16.07;;;14.47;;
4595;SDS011;2310;49.978;8.742;2023-06-22T01:28:11;15.33;;;13.77;;
4595;SDS011;2310;49.978;8.742;2023-06-22T01:32:28;14.53;;;13.23;;
4595;SDS011;2310;49.978;8.742;2023-06-22T01:36:33;14.80;;;13.30;;
4595;SDS011;2310;49.978;8.742;2023-06-22T01:40:36;16.53;;;14.93;;
4595;SDS011;2310;49.978;8.742;2023-06-22T01:44:38;17.20;;;15.40;;
4595;SDS011;2310;49.978;8.742;2023-06-22T01:48:40;17.20;;;15.60;;
4595;SDS011;2310;49.978;8.742;2023-06-22T01:52:42;16.13;;;14.63;;
4595;SDS011;2310;49.978;8.742;2023-06-22T01:56:43;16.17;;;14.57;;
4595;SDS011;2310;49.978;8.742;2023-06-22T02:00:47;16.30;;;14.77;;
4595;SDS011;2310;49.978;8.742;2023-06-22T02:04:59;15.80;;;14.20;;
4595;SDS011;2310;49.978;8.742;2023-06-22T02:09:08;15.00;;;13.53;;
4595;SDS011;2310;49.978;8.742;2023-06-22T02:13:12;15.70;;;14.17;;
4595;SDS011;2310;49.978;8.742;2023-06-22T02:17:18;14.13;;;12.70;;
4595;SDS011;2310;49.978;8.742;2023-06-22T02:21:19;13.00;;;11.67;;
4595;SDS011;2310;49.978;8.742;2023-06-22T02:25:21;18.27;;;16.37;;
4595;SDS011;2310;49.978;8.742;2023-06-22T02:29:23;15.93;;;14.30;;
4595;SDS011;2310;49.978;8.742;2023-06-22T02:33:24;15.97;;;14.40;;
4595;SDS011;2310;49.978;8.742;2023-06-22T02:37:25;14.93;;;13.50;;
4595;SDS011;2310;49.978;8.742;2023-06-22T02:41:29;17.80;;;14.63;;
4595;SDS011;2310;49.978;8.742;2023-06-22T02:45:30;16.13;;;14.73;;
4595;SDS011;2310;49.978;8.742;2023-06-22T02:49:31;17.10;;;15.57;;
4595;SDS011;2310;49.978;8.742;2023-06-22T02:53:33;15.43;;;14.00;;
4595;SDS011;2310;49.978;8.742;2023-06-22T02:57:34;14.10;;;12.83;;
4595;SDS011;2310;49.978;8.742;2023-06-22T03:01:36;15.23;;;13.93;;
4595;SDS011;2310;49.978;8.742;2023-06-22T03:05:41;15.77;;;14.37;;
4595;SDS011;2310;49.978;8.742;2023-06-22T03:09:42;18.23;;;16.57;;
4595;SDS011;2310;49.978;8.742;2023-06-22T03:13:44;16.13;;;14.77;;
4595;SDS011;2310;49.978;8.742;2023-06-22T03:17:47;18.67;;;16.87;;
4595;SDS011;2310;49.978;8.742;2023-06-22T03:21:48;16.23;;;14.90;;
4595;SDS011;2310;49.978;8.742;2023-06-22T03:25:50;18.20;;;16.43;;
4595;SDS011;2310;49.978;8.742;2023-06-22T03:29:51;17.40;;;15.60;;
4595;SDS011;2310;49.978;8.742;2023-06-22T03:33:52;15.73;;;14.33;;
4595;SDS011;2310;49.978;8.742;2023-06-22T03:37:54;14.93;;;13.43;;
4595;SDS011;2310;49.978;8.742;2023-06-22T03:41:56;17.53;;;15.50;;
4595;SDS011;2310;49.978;8.742;2023-06-22T03:45:57;16.70;;;15.20;;
4595;SDS011;2310;49.978;8.742;2023-06-22T03:49:58;17.60;;;15.90;;
4595;SDS011;2310;49.978;8.742;2023-06-22T03:54:00;18.40;;;16.80;;
4595;SDS011;2310;49.978;8.742;2023-06-22T03:58:01;20.20;;;18.30;;
4595;SDS011;2310;49.978;8.742;2023-06-22T04:02:04;18.83;;;17.23;;
4595;SDS011;2310;49.978;8.742;2023-06-22T04:06:06;17.40;;;15.90;;
4595;SDS011;2310;49.978;8.742;2023-06-22T04:10:07;19.97;;;18.27;;
4595;SDS011;2310;49.978;8.742;2023-06-22T04:14:11;19.20;;;17.60;;
4595;SDS011;2310;49.978;8.742;2023-06-22T04:18:12;20.13;;;18.17;;
4595;SDS011;2310;49.978;8.742;2023-06-22T04:22:14;18.93;;;17.23;;
4595;SDS011;2310;49.978;8.742;2023-06-22T04:26:15;18.60;;;16.83;;
4595;SDS011;2310;49.978;8.742;2023-06-22T04:30:17;20.27;;;18.37;;
4595;SDS011;2310;49.978;8.742;2023-06-22T04:34:18;21.80;;;19.80;;
4595;SDS011;2310;49.978;8.742;2023-06-22T04:38:20;22.30;;;20.13;;
4595;SDS011;2310;49.978;8.742;2023-06-22T04:42:22;20.40;;;18.70;;
4595;SDS011;2310;49.978;8.742;2023-06-22T04:46:23;21.20;;;19.30;;
4595;SDS011;2310;49.978;8.742;2023-06-22T04:50:25;21.60;;;19.63;;
4595;SDS011;2310;49.978;8.742;2023-06-22T04:54:26;20.30;;;18.50;;
4595;SDS011;2310;49.978;8.742;2023-06-22T04:58:28;21.03;;;18.83;;
4595;SDS011;2310;49.978;8.742;2023-06-22T05:02:30;22.37;;;20.30;;
4595;SDS011;2310;49.978;8.742;2023-06-22T05:06:33;18.87;;;17.27;;
4595;SDS011;2310;49.978;8.742;2023-06-22T05:10:34;19.97;;;18.10;;
4595;SDS011;2310;49.978;8.742;2023-06-22T05:14:35;18.50;;;16.80;;
4595;SDS011;2310;49.978;8.742;2023-06-22T05:18:37;18.83;;;17.30;;
4595;SDS011;2310;49.978;8.742;2023-06-22T05:22:38;20.60;;;17.50;;
4595;SDS011;2310;49.978;8.742;2023-06-22T05:26:40;18.70;;;16.93;;
4595;SDS011;2310;49.978;8.742;2023-06-22T05:30:41;17.00;;;15.50;;
4595;SDS011;2310;49.978;8.742;2023-06-22T05:34:43;19.20;;;17.37;;
4595;SDS011;2310;49.978;8.742;2023-06-22T05:38:44;17.60;;;15.97;;
4595;SDS011;2310;49.978;8.742;2023-06-22T05:42:45;17.30;;;15.90;;
4595;SDS011;2310;49.978;8.742;2023-06-22T05:46:47;19.27;;;17.47;;
4595;SDS011;2310;49.978;8.742;2023-06-22T05:50:49;18.93;;;17.10;;
4595;SDS011;2310;49.978;8.742;2023-06-22T05:54:50;18.10;;;16.50;;
4595;SDS011;2310;49.978;8.742;2023-06-22T05:58:52;18.27;;;16.67;;
4595;SDS011;2310;49.978;8.742;2023-06-22T06:02:53;18.03;;;16.40;;
4595;SDS011;2310;49.978;8.742;2023-06-22T06:06:55;16.73;;;15.33;;
4595;SDS011;2310;49.978;8.742;2023-06-22T06:10:56;17.07;;;15.50;;
4595;SDS011;2310;49.978;8.742;2023-06-22T06:14:58;15.47;;;14.07;;
4595;SDS011;2310;49.978;8.742;2023-06-22T06:18:59;16.10;;;14.60;;
4595;SDS011;2310;49.978;8.742;2023-06-22T06:23:01;16.60;;;15.10;;
4595;SDS011;2310;49.978;8.742;2023-06-22T06:27:03;15.43;;;14.23;;
4595;SDS011;2310;49.978;8.742;2023-06-22T06:31:05;17.43;;;14.60;;
4595;SDS011;2310;49.978;8.742;2023-06-22T06:35:08;15.47;;;13.97;;
4595;SDS011;2310;49.978;8.742;2023-06-22T06:39:10;14.97;;;13.67;;
4595;SDS011;2310;49.978;8.742;2023-06-22T06:43:12;13.83;;;12.73;;
4595;SDS011;2310;49.978;8.742;2023-06-22T06:47:14;14.70;;;13.30;;
4595;SDS011;2310;49.978;8.742;2023-06-22T06:51:15;15.73;;;14.30;;
4595;SDS011;2310;49.978;8.742;2023-06-22T06:55:17;14.70;;;13.27;;
4595;SDS011;2310;49.978;8.742;2023-06-22T06:59:18;16.20;;;14.80;;
4595;SDS011;2310;49.978;8.742;2023-06-22T07:03:19;15.10;;;13.70;;
4595;SDS011;2310;49.978;8.742;2023-06-22T07:07:21;16.60;;;14.90;;
4595;SDS011;2310;49.978;8.742;2023-06-22T07:11:22;30.13;;;26.93;;
4595;SDS011;2310;49.978;8.742;2023-06-22T07:15:24;16.10;;;14.70;;
4595;SDS011;2310;49.978;8.742;2023-06-22T07:19:25;17.67;;;15.97;;
4595;SDS011;2310;49.978;8.742;2023-06-22T07:23:29;13.97;;;12.67;;
4595;SDS011;2310;49.978;8.742;2023-06-22T07:27:31;15.00;;;13.63;;
4595;SDS011;2310;49.978;8.742;2023-06-22T07:31:34;13.40;;;12.20;;
4595;SDS011;2310;49.978;8.742;2023-06-22T07:35:35;14.33;;;13.00;;
4595;SDS011;2310;49.978;8.742;2023-06-22T07:39:37;15.07;;;13.67;;
4595;SDS011;2310;49.978;8.742;2023-06-22T07:43:38;14.10;;;12.80;;
4595;SDS011;2310;49.978;8.742;2023-06-22T07:47:39;16.77;;;15.27;;
4595;SDS011;2310;49.978;8.742;2023-06-22T07:51:41;16.23;;;14.83;;
4595;SDS011;2310;49.978;8.742;2023-06-22T07:55:42;15.33;;;13.73;;
4595;SDS011;2310;49.978;8.742;2023-06-22T07:59:44;15.47;;;14.17;;
4595;SDS011;2310;49.978;8.742;2023-06-22T08:03:46;13.90;;;12.53;;
4595;SDS011;2310;49.978;8.742;2023-06-22T08:07:49;14.83;;;13.43;;
4595;SDS011;2310;49.978;8.742;2023-06-22T08:11:51;14.03;;;12.90;;
4595;SDS011;2310;49.978;8.742;2023-06-22T08:15:52;14.60;;;13.40;;
4595;SDS011;2310;49.978;8.742;2023-06-22T08:19:54;14.77;;;13.57;;
4595;SDS011;2310;49.978;8.742;2023-06-22T08:23:56;15.80;;;14.20;;
4595;SDS011;2310;49.978;8.742;2023-06-22T08:27:58;15.00;;;13.60;;
4595;SDS011;2310;49.978;8.742;2023-06-22T08:32:00;14.77;;;13.67;;
4595;SDS011;2310;49.978;8.742;2023-06-22T08:36:01;14.93;;;13.63;;
4595;SDS011;2310;49.978;8.742;2023-06-22T08:40:03;15.27;;;13.77;;
4595;SDS011;2310;49.978;8.742;2023-06-22T08:44:06;14.83;;;13.17;;
4595;SDS011;2310;49.978;8.742;2023-06-22T08:48:08;14.07;;;12.77;;
4595;SDS011;2310;49.978;8.742;2023-06-22T08:52:09;14.00;;;12.80;;
4595;SDS011;2310;49.978;8.742;2023-06-22T08:56:10;13.23;;;12.03;;
4595;SDS011;2310;49.978;8.742;2023-06-22T09:00:12;13.87;;;12.70;;
4595;SDS011;2310;49.978;8.742;2023-06-22T09:04:17;13.67;;;12.47;;
4595;SDS011;2310;49.978;8.742;2023-06-22T09:08:19;14.40;;;13.20;;
4595;SDS011;2310;49.978;8.742;2023-06-22T09:12:20;13.60;;;12.40;;
4595;SDS011;2310;49.978;8.742;2023-06-22T09:16:24;14.00;;;12.80;;
4595;SDS011;2310;49.978;8.742;2023-06-22T09:20:25;15.03;;;13.63;;
4595;SDS011;2310;49.978;8.742;2023-06-22T09:24:26;11.83;;;10.83;;
4595;SDS011;2310;49.978;8.742;2023-06-22T09:28:27;11.83;;;10.70;;
4595;SDS011;2310;49.978;8.742;2023-06-22T09:32:29;12.33;;;11.30;;
4595;SDS011;2310;49.978;8.742;2023-06-22T09:36:30;11.87;;;10.87;;
4595;SDS011;2310;49.978;8.742;2023-06-22T09:40:31;11.67;;;10.57;;
4595;SDS011;2310;49.978;8.742;2023-06-22T09:44:35;12.63;;;11.47;;
4595;SDS011;2310;49.978;8.742;2023-06-22T09:48:36;12.70;;;11.63;;
4595;SDS011;2310;49.978;8.742;2023-06-22T09:52:39;12.50;;;11.40;;
4595;SDS011;2310;49.978;8.742;2023-06-22T09:56:42;12.47;;;11.37;;
4595;SDS011;2310;49.978;8.742;2023-06-22T10:00:44;11.17;;;10.23;;
4595;SDS011;2310;49.978;8.742;2023-06-22T10:04:45;10.67;;;9.63;;
4595;SDS011;2310;49.978;8.742;2023-06-22T10:08:49;11.37;;;10.17;;
4595;SDS011;2310;49.978;8.742;2023-06-22T10:12:57;12.30;;;11.10;;
4595;SDS011;2310;49.978;8.742;2023-06-22T10:17:02;10.23;;;9.43;;
4595;SDS011;2310;49.978;8.742;2023-06-22T10:21:03;11.70;;;10.60;;
4595;SDS011;2310;49.978;8.742;2023-06-22T10:25:05;19.33;;;12.17;;
4595;SDS011;2310;49.978;8.742;2023-06-22T10:29:07;14.60;;;11.20;;
4595;SDS011;2310;49.978;8.742;2023-06-22T10:33:11;11.53;;;10.53;;
4595;SDS011;2310;49.978;8.742;2023-06-22T10:37:13;11.77;;;10.77;;
4595;SDS011;2310;49.978;8.742;2023-06-22T10:41:14;12.10;;;11.00;;
4595;SDS011;2310;49.978;8.742;2023-06-22T10:45:17;13.10;;;11.90;;
4595;SDS011;2310;49.978;8.742;2023-06-22T10:49:18;12.87;;;10.53;;
4595;SDS011;2310;49.978;8.742;2023-06-22T10:53:20;11.57;;;10.33;;
4595;SDS011;2310;49.978;8.742;2023-06-22T10:57:22;13.03;;;11.73;;
4595;SDS011;2310;49.978;8.742;2023-06-22T11:01:23;12.00;;;10.80;;
4595;SDS011;2310;49.978;8.742;2023-06-22T11:05:26;10.00;;;9.10;;
4595;SDS011;2310;49.978;8.742;2023-06-22T11:09:28;12.20;;;10.83;;
4595;SDS011;2310;49.978;8.742;2023-06-22T11:13:30;11.97;;;10.80;;
4595;SDS011;2310;49.978;8.742;2023-06-22T11:17:31;11.10;;;10.00;;
4595;SDS011;2310;49.978;8.742;2023-06-22T11:21:33;11.83;;;10.77;;
4595;SDS011;2310;49.978;8.742;2023-06-22T11:25:34;12.73;;;11.27;;
4595;SDS011;2310;49.978;8.742;2023-06-22T11:29:36;12.63;;;10.87;;
4595;SDS011;2310;49.978;8.742;2023-06-22T11:33:39;16.10;;;12.13;;
4595;SDS011;2310;49.978;8.742;2023-06-22T11:37:41;12.30;;;11.13;;
4595;SDS011;2310;49.978;8.742;2023-06-22T11:41:45;11.83;;;10.77;;
4595;SDS011;2310;49.978;8.742;2023-06-22T11:45:46;13.40;;;11.73;;
4595;SDS011;2310;49.978;8.742;2023-06-22T11:49:48;13.53;;;11.77;;
4595;SDS011;2310;49.978;8.742;2023-06-22T11:53:49;12.33;;;11.23;;
4595;SDS011;2310;49.978;8.742;2023-06-22T11:57:58;12.83;;;11.53;;
4595;SDS011;2310;49.978;8.742;2023-06-22T12:01:59;11.27;;;10.27;;
4595;SDS011;2310;49.978;8.742;2023-06-22T12:06:01;12.40;;;11.30;;
4595;SDS011;2310;49.978;8.742;2023-06-22T12:10:03;13.50;;;12.20;;
4595;SDS011;2310;49.978;8.742;2023-06-22T12:14:04;12.97;;;11.77;;
4595;SDS011;2310;49.978;8.742;2023-06-22T12:18:06;15.23;;;12.03;;
4595;SDS011;2310;49.978;8.742;2023-06-22T12:22:07;13.93;;;12.27;;
4595;SDS011;2310;49.978;8.742;2023-06-22T12:26:09;13.50;;;12.37;;
4595;SDS011;2310;49.978;8.742;2023-06-22T12:30:10;13.43;;;12.20;;
4595;SDS011;2310;49.978;8.742;2023-06-22T12:34:11;14.07;;;12.63;;
4595;SDS011;2310;49.978;8.742;2023-06-22T12:38:13;12.83;;;11.53;;
4595;SDS011;2310;49.978;8.742;2023-06-22T12:42:15;11.87;;;10.77;;
4595;SDS011;2310;49.978;8.742;2023-06-22T12:46:17;14.53;;;12.57;;
4595;SDS011;2310;49.978;8.742;2023-06-22T12:50:18;12.30;;;11.10;;
4595;SDS011;2310;49.978;8.742;2023-06-22T12:54:19;12.33;;;11.00;;
4595;SDS011;2310;49.978;8.742;2023-06-22T12:58:21;13.23;;;11.90;;
4595;SDS011;2310;49.978;8.742;2023-06-22T13:02:22;13.70;;;11.63;;
4595;SDS011;2310;49.978;8.742;2023-06-22T13:06:24;11.67;;;10.27;;
4595;SDS011;2310;49.978;8.742;2023-06-22T13:10:25;13.57;;;12.20;;
4595;SDS011;2310;49.978;8.742;2023-06-22T13:14:27;15.03;;;12.27;;
4595;SDS011;2310;49.978;8.742;2023-06-22T13:18:29;14.20;;;12.20;;
4595;SDS011;2310;49.978;8.742;2023-06-22T13:22:31;14.90;;;13.40;;
4595;SDS011;2310;49.978;8.742;2023-06-22T13:26:33;12.70;;;11.47;;
4595;SDS011;2310;49.978;8.742;2023-06-22T13:30:35;12.40;;;11.20;;
4595;SDS011;2310;49.978;8.742;2023-06-22T13:34:36;14.00;;;12.57;;
4595;SDS011;2310;49.978;8.742;2023-06-22T13:38:39;11.50;;;10.13;;
4595;SDS011;2310;49.978;8.742;2023-06-22T13:42:40;15.03;;;11.00;;
4595;SDS011;2310;49.978;8.742;2023-06-22T13:46:41;12.80;;;11.60;;
4595;SDS011;2310;49.978;8.742;2023-06-22T13:50:43;12.10;;;10.93;;
4595;SDS011;2310;49.978;8.742;2023-06-22T13:54:45;13.53;;;11.33;;
4595;SDS011;2310;49.978;8.742;2023-06-22T13:58:46;13.40;;;10.93;;
4595;SDS011;2310;49.978;8.742;2023-06-22T14:02:47;11.00;;;9.90;;
4595;SDS011;2310;49.978;8.742;2023-06-22T14:06:49;11.03;;;10.00;;
4595;SDS011;2310;49.978;8.742;2023-06-22T14:10:50;11.20;;;8.50;;
4595;SDS011;2310;49.978;8.742;2023-06-22T14:14:51;15.73;;;9.10;;
4595;SDS011;2310;49.978;8.742;2023-06-22T14:18:53;10.70;;;8.50;;
4595;SDS011;2310;49.978;8.742;2023-06-22T14:22:57;11.80;;;8.43;;
4595;SDS011;2310;49.978;8.742;2023-06-22T14:26:58;11.77;;;9.00;;
4595;SDS011;2310;49.978;8.742;2023-06-22T14:31:00;15.67;;;9.60;;
4595;SDS011;2310;49.978;8.742;2023-06-22T14:35:01;14.27;;;9.23;;
4595;SDS011;2310;49.978;8.742;2023-06-22T14:39:03;14.57;;;8.07;;
4595;SDS011;2310;49.978;8.742;2023-06-22T14:43:05;11.10;;;7.97;;
4595;SDS011;2310;49.978;8.742;2023-06-22T14:47:06;9.73;;;7.63;;
4595;SDS011;2310;49.978;8.742;2023-06-22T14:51:08;12.57;;;8.40;;
4595;SDS011;2310;49.978;8.742;2023-06-22T14:55:10;10.60;;;7.60;;
4595;SDS011;2310;49.978;8.742;2023-06-22T14:59:12;13.13;;;8.07;;
4595;SDS011;2310;49.978;8.742;2023-06-22T15:03:13;11.63;;;8.20;;
4595;SDS011;2310;49.978;8.742;2023-06-22T15:07:17;13.07;;;7.60;;
4595;SDS011;2310;49.978;8.742;2023-06-22T15:11:19;13.20;;;7.70;;
4595;SDS011;2310;49.978;8.742;2023-06-22T15:15:21;12.20;;;8.30;;
4595;SDS011;2310;49.978;8.742;2023-06-22T15:19:22;13.97;;;8.37;;
4595;SDS011;2310;49.978;8.742;2023-06-22T15:23:23;9.00;;;7.50;;
4595;SDS011;2310;49.978;8.742;2023-06-22T15:27:25;10.33;;;7.20;;
4595;SDS011;2310;49.978;8.742;2023-06-22T15:31:26;14.13;;;8.77;;
4595;SDS011;2310;49.978;8.742;2023-06-22T15:35:28;9.23;;;8.00;;
4595;SDS011;2310;49.978;8.742;2023-06-22T15:39:29;11.90;;;8.03;;
4595;SDS011;2310;49.978;8.742;2023-06-22T15:43:31;9.70;;;7.43;;
4595;SDS011;2310;49.978;8.742;2023-06-22T15:47:32;9.27;;;8.30;;
4595;SDS011;2310;49.978;8.742;2023-06-22T15:51:36;10.20;;;8.00;;
4595;SDS011;2310;49.978;8.742;2023-06-22T15:55:38;13.53;;;9.30;;
4595;SDS011;2310;49.978;8.742;2023-06-22T15:59:39;12.17;;;6.70;;
4595;SDS011;2310;49.978;8.742;2023-06-22T16:03:41;10.33;;;8.10;;
4595;SDS011;2310;49.978;8.742;2023-06-22T16:07:43;14.30;;;8.27;;
4595;SDS011;2310;49.978;8.742;2023-06-22T16:11:44;12.67;;;8.37;;
4595;SDS011;2310;49.978;8.742;2023-06-22T16:15:45;11.77;;;7.10;;
4595;SDS011;2310;49.978;8.742;2023-06-22T16:19:47;11.33;;;7.83;;
4595;SDS011;2310;49.978;8.742;2023-06-22T16:23:48;10.50;;;8.27;;
4595;SDS011;2310;49.978;8.742;2023-06-22T16:27:49;11.67;;;8.13;;
4595;SDS011;2310;49.978;8.742;2023-06-22T16:31:51;12.67;;;8.37;;
4595;SDS011;2310;49.978;8.742;2023-06-22T16:35:52;14.27;;;8.63;;
4595;SDS011;2310;49.978;8.742;2023-06-22T16:39:53;13.90;;;6.87;;
4595;SDS011;2310;49.978;8.742;2023-06-22T16:43:55;10.67;;;6.50;;
4595;SDS011;2310;49.978;8.742;2023-06-22T16:47:56;13.03;;;6.23;;
4595;SDS011;2310;49.978;8.742;2023-06-22T16:51:57;9.80;;;6.67;;
4595;SDS011;2310;49.978;8.742;2023-06-22T16:55:59;11.67;;;5.70;;
4595;SDS011;2310;49.978;8.742;2023-06-22T17:00:00;12.23;;;5.70;;
4595;SDS011;2310;49.978;8.742;2023-06-22T17:04:07;8.60;;;4.77;;
4595;SDS011;2310;49.978;8.742;2023-06-22T17:08:12;12.77;;;5.40;;
4595;SDS011;2310;49.978;8.742;2023-06-22T17:12:17;13.50;;;6.03;;
4595;SDS011;2310;49.978;8.742;2023-06-22T17:16:19;9.67;;;5.60;;
4595;SDS011;2310;49.978;8.742;2023-06-22T17:20:22;7.30;;;5.30;;
4595;SDS011;2310;49.978;8.742;2023-06-22T17:24:26;12.07;;;6.40;;
4595;SDS011;2310;49.978;8.742;2023-06-22T17:28:42;19.80;;;7.60;;
4595;SDS011;2310;49.978;8.742;2023-06-22T17:32:34;10.80;;;6.50;;
4595;SDS011;2310;49.978;8.742;2023-06-22T17:36:44;11.27;;;7.10;;
4595;SDS011;2310;49.978;8.742;2023-06-22T17:40:47;12.43;;;7.30;;
4595;SDS011;2310;49.978;8.742;2023-06-22T17:44:48;11.33;;;7.70;;
4595;SDS011;2310;49.978;8.742;2023-06-22T17:48:50;12.13;;;8.17;;
4595;SDS011;2310;49.978;8.742;2023-06-22T17:52:52;12.40;;;7.07;;
4595;SDS011;2310;49.978;8.742;2023-06-22T17:56:55;12.90;;;7.60;;
4595;SDS011;2310;49.978;8.742;2023-06-22T18:00:57;12.50;;;7.40;;
4595;SDS011;2310;49.978;8.742;2023-06-22T18:04:58;11.23;;;7.07;;
4595;SDS011;2310;49.978;8.742;2023-06-22T18:09:04;11.20;;;6.27;;
4595;SDS011;2310;49.978;8.742;2023-06-22T18:13:06;11.10;;;7.27;;
4595;SDS011;2310;49.978;8.742;2023-06-22T18:17:08;13.50;;;7.37;;
4595;SDS011;2310;49.978;8.742;2023-06-22T18:21:11;10.03;;;6.40;;
4595;SDS011;2310;49.978;8.742;2023-06-22T18:25:14;10.53;;;7.17;;
4595;SDS011;2310;49.978;8.742;2023-06-22T18:29:20;9.30;;;6.80;;
4595;SDS011;2310;49.978;8.742;2023-06-22T18:33:22;14.07;;;6.07;;
4595;SDS011;2310;49.978;8.742;2023-06-22T18:37:23;11.83;;;6.67;;
4595;SDS011;2310;49.978;8.742;2023-06-22T18:41:35;9.00;;;6.27;;
4595;SDS011;2310;49.978;8.742;2023-06-22T18:45:39;9.70;;;6.97;;
4595;SDS011;2310;49.978;8.742;2023-06-22T18:54:00;7.70;;;5.57;;
4595;SDS011;2310;49.978;8.742;2023-06-22T18:58:11;12.33;;;5.90;;
4595;SDS011;2310;49.978;8.742;2023-06-22T19:02:08;9.03;;;5.63;;
4595;SDS011;2310;49.978;8.742;2023-06-22T19:06:11;9.60;;;6.03;;
4595;SDS011;2310;49.978;8.742;2023-06-22T19:10:22;8.30;;;5.33;;
4595;SDS011;2310;49.978;8.742;2023-06-22T19:14:26;9.70;;;5.50;;
4595;SDS011;2310;49.978;8.742;2023-06-22T19:22:43;11.70;;;5.93;;
4595;SDS011;2310;49.978;8.742;2023-06-22T19:26:50;13.50;;;6.97;;
4595;SDS011;2310;49.978;8.742;2023-06-22T19:30:58;9.80;;;5.83;;
4595;SDS011;2310;49.978;8.742;2023-06-22T19:35:01;11.40;;;6.33;;
4595;SDS011;2310;49.978;8.742;2023-06-22T19:39:03;10.37;;;6.17;;
4595;SDS011;2310;49.978;8.742;2023-06-22T19:43:05;11.70;;;6.10;;
4595;SDS011;2310;49.978;8.742;2023-06-22T19:47:08;10.10;;;6.60;;
4595;SDS011;2310;49.978;8.742;2023-06-22T19:51:10;10.10;;;6.37;;
4595;SDS011;2310;49.978;8.742;2023-06-22T19:55:12;15.73;;;14.17;;
4595;SDS011;2310;49.978;8.742;2023-06-22T19:59:16;8.47;;;6.20;;
4595;SDS011;2310;49.978;8.742;2023-06-22T20:03:22;12.37;;;6.63;;
4595;SDS011;2310;49.978;8.742;2023-06-22T20:07:39;9.83;;;6.37;;
4595;SDS011;2310;49.978;8.742;2023-06-22T20:11:42;10.13;;;6.10;;
4595;SDS011;2310;49.978;8.742;2023-06-22T20:15:43;12.20;;;5.70;;
4595;SDS011;2310;49.978;8.742;2023-06-22T20:19:52;9.77;;;5.67;;
4595;SDS011;2310;49.978;8.742;2023-06-22T20:23:51;9.40;;;5.40;;
4595;SDS011;2310;49.978;8.742;2023-06-22T20:27:52;6.43;;;3.87;;
4595;SDS011;2310;49.978;8.742;2023-06-22T20:32:07;6.43;;;2.63;;
4595;SDS011;2310;49.978;8.742;2023-06-22T20:36:15;6.40;;;2.30;;
4595;SDS011;2310;49.978;8.742;2023-06-22T20:40:18;6.30;;;1.73;;
4595;SDS011;2310;49.978;8.742;2023-06-22T20:44:19;4.50;;;2.10;;
4595;SDS011;2310;49.978;8.742;2023-06-22T20:48:20;3.30;;;1.40;;
4595;SDS011;2310;49.978;8.742;2023-06-22T20:52:27;3.70;;;1.30;;
4595;SDS011;2310;49.978;8.742;2023-06-22T20:56:29;3.40;;;1.40;;
4595;SDS011;2310;49.978;8.742;2023-06-22T21:00:33;4.13;;;1.27;;
4595;SDS011;2310;49.978;8.742;2023-06-22T21:04:35;4.37;;;1.17;;
4595;SDS011;2310;49.978;8.742;2023-06-22T21:08:38;3.47;;;1.20;;
4595;SDS011;2310;49.978;8.742;2023-06-22T21:12:40;6.67;;;1.30;;
4595;SDS011;2310;49.978;8.742;2023-06-22T21:16:42;3.10;;;1.20;;
4595;SDS011;2310;49.978;8.742;2023-06-22T21:20:43;3.30;;;1.10;;
4595;SDS011;2310;49.978;8.742;2023-06-22T21:24:45;3.10;;;0.90;;
4595;SDS011;2310;49.978;8.742;2023-06-22T21:28:48;4.20;;;1.30;;
4595;SDS011;2310;49.978;8.742;2023-06-22T21:32:50;3.00;;;0.90;;
4595;SDS011;2310;49.978;8.742;2023-06-22T21:36:51;3.10;;;0.70;;
4595;SDS011;2310;49.978;8.742;2023-06-22T21:40:53;4.70;;;1.00;;
4595;SDS011;2310;49.978;8.742;2023-06-22T21:44:57;2.80;;;0.80;;
4595;SDS011;2310;49.978;8.742;2023-06-22T21:48:58;3.00;;;0.90;;
4595;SDS011;2310;49.978;8.742;2023-06-22T21:53:00;3.10;;;1.00;;
4595;SDS011;2310;49.978;8.742;2023-06-22T21:57:03;3.27;;;0.80;;
4595;SDS011;2310;49.978;8.742;2023-06-22T22:01:04;4.30;;;0.90;;
4595;SDS011;2310;49.978;8.742;2023-06-22T22:05:06;4.00;;;1.30;;
4595;SDS011;2310;49.978;8.742;2023-06-22T22:09:08;3.03;;;0.70;;
4595;SDS011;2310;49.978;8.742;2023-06-22T22:13:09;3.63;;;0.60;;
4595;SDS011;2310;49.978;8.742;2023-06-22T22:17:12;3.47;;;0.70;;
4595;SDS011;2310;49.978;8.742;2023-06-22T22:21:14;3.00;;;0.70;;
4595;SDS011;2310;49.978;8.742;2023-06-22T22:25:16;3.47;;;0.80;;
4595;SDS011;2310;49.978;8.742;2023-06-22T22:29:17;2.80;;;0.60;;
4595;SDS011;2310;49.978;8.742;2023-06-22T22:33:19;3.50;;;0.80;;
4595;SDS011;2310;49.978;8.742;2023-06-22T22:37:20;2.70;;;0.60;;
4595;SDS011;2310;49.978;8.742;2023-06-22T22:41:22;2.70;;;0.50;;
4595;SDS011;2310;49.978;8.742;2023-06-22T22:45:23;3.37;;;0.60;;
4595;SDS011;2310;49.978;8.742;2023-06-22T22:49:24;2.70;;;0.57;;
4595;SDS011;2310;49.978;8.742;2023-06-22T22:53:26;2.90;;;0.60;;
4595;SDS011;2310;49.978;8.742;2023-06-22T22:57:28;2.70;;;0.73;;
4595;SDS011;2310;49.978;8.742;2023-06-22T23:01:29;3.10;;;0.77;;
4595;SDS011;2310;49.978;8.742;2023-06-22T23:05:31;4.47;;;0.87;;
4595;SDS011;2310;49.978;8.742;2023-06-22T23:09:32;2.90;;;0.70;;
4595;SDS011;2310;49.978;8.742;2023-06-22T23:13:34;6.00;;;0.90;;
4595;SDS011;2310;49.978;8.742;2023-06-22T23:17:36;3.70;;;1.40;;
4595;SDS011;2310;49.978;8.742;2023-06-22T23:21:37;4.47;;;2.20;;
4595;SDS011;2310;49.978;8.742;2023-06-22T23:25:39;4.83;;;2.27;;
4595;SDS011;2310;49.978;8.742;2023-06-22T23:29:41;5.10;;;2.80;;
4595;SDS011;2310;49.978;8.742;2023-06-22T23:33:44;5.20;;;2.60;;
4595;SDS011;2310;49.978;8.742;2023-06-22T23:37:46;9.10;;;3.80;;
4595;SDS011;2310;49.978;8.742;2023-06-22T23:41:48;9.53;;;4.53;;
4595;SDS011;2310;49.978;8.742;2023-06-22T23:45:49;6.67;;;5.40;;
4595;SDS011;2310;49.978;8.742;2023-06-22T23:49:50;5.40;;;4.30;;
4595;SDS011;2310;49.978;8.742;2023-06-22T23:53:52;6.87;;;5.50;;
4595;SDS011;2310;49.978;8.742;2023-06-22T23:57:53;6.90;;;5.83;;
